Time;durP1;ratioP1;P1;durP2;ratioP2;P2;SDS_P1;SDS_P2;PMS_P1;PMS_P2;Temp;Humidity;BMP_temperature;BMP_pressure;BME280_temperature;BME280_humidity;BME280_pressure;Samples;Min_cycle;Max_cycle;Signal;HPM_P1;HPM_P2
2024/03/23 00:00:07;;;;;;;18.73;3.05;;;6.10;99.90;;;;;;5067349;28;20452;-64
2024/03/23 00:02:33;;;;;;;23.58;3.38;;;6.10;99.90;;;;;;5066834;28;20089;-64
2024/03/23 00:05:00;;;;;;;17.17;3.28;;;6.10;99.90;;;;;;5063936;28;20113;-63
2024/03/23 00:07:26;;;;;;;19.25;3.15;;;6.10;99.90;;;;;;5063711;28;20048;-63
2024/03/23 00:09:53;;;;;;;19.48;3.40;;;6.10;99.90;;;;;;5063683;28;20044;-63
2024/03/23 00:12:20;;;;;;;12.10;2.63;;;6.00;99.90;;;;;;5073271;28;20440;-64
2024/03/23 00:14:46;;;;;;;20.35;3.20;;;6.00;99.90;;;;;;5072962;28;20040;-63
2024/03/23 00:17:13;;;;;;;20.58;2.47;;;6.00;99.90;;;;;;5068819;28;20052;-64
2024/03/23 00:19:39;;;;;;;19.02;3.10;;;6.00;99.90;;;;;;5066934;28;20448;-64
2024/03/23 00:22:06;;;;;;;22.48;3.17;;;5.90;99.90;;;;;;5079320;28;20110;-63
2024/03/23 00:24:33;;;;;;;16.55;3.00;;;5.90;99.90;;;;;;5065926;28;20534;-63
2024/03/23 00:27:01;;;;;;;31.52;3.40;;;5.90;99.90;;;;;;5083527;28;20036;-64
2024/03/23 00:29:27;;;;;;;19.63;3.33;;;5.90;99.90;;;;;;5076026;28;20422;-64
2024/03/23 00:31:55;;;;;;;16.73;2.80;;;5.90;99.90;;;;;;5073536;28;20052;-63
2024/03/23 00:34:22;;;;;;;16.02;3.88;;;5.90;99.90;;;;;;5063962;28;20059;-63
2024/03/23 00:36:48;;;;;;;28.55;3.50;;;5.90;99.90;;;;;;5067668;28;20052;-63
2024/03/23 00:39:15;;;;;;;18.83;4.03;;;5.90;99.90;;;;;;5075752;28;20051;-64
2024/03/23 00:41:42;;;;;;;16.50;3.35;;;5.90;99.90;;;;;;5064875;28;20638;-63
2024/03/23 00:44:08;;;;;;;27.25;3.20;;;5.90;99.90;;;;;;5064959;28;20040;-63
2024/03/23 00:46:35;;;;;;;22.08;3.03;;;5.90;99.90;;;;;;5075477;28;20032;-63
2024/03/23 00:49:01;;;;;;;20.63;2.97;;;5.90;99.90;;;;;;5067902;28;20048;-63
2024/03/23 00:51:28;;;;;;;14.52;2.53;;;5.90;99.90;;;;;;5073947;28;20079;-64
2024/03/23 00:53:54;;;;;;;13.82;2.33;;;5.90;99.90;;;;;;5073133;28;20040;-63
2024/03/23 00:56:20;;;;;;;21.48;2.72;;;5.90;99.90;;;;;;5074706;28;20073;-63
2024/03/23 00:58:45;;;;;;;15.20;2.83;;;5.90;99.90;;;;;;5065314;28;20044;-64
2024/03/23 01:01:11;;;;;;;21.20;3.03;;;5.80;99.90;;;;;;5075797;28;20147;-64
2024/03/23 01:03:37;;;;;;;21.05;3.38;;;5.80;99.90;;;;;;5084116;28;20469;-63
2024/03/23 01:06:06;;;;;;;20.20;3.30;;;5.70;99.90;;;;;;5076488;28;20686;-64
2024/03/23 01:08:31;;;;;;;32.10;3.17;;;5.70;99.90;;;;;;5064621;28;20071;-64
2024/03/23 01:10:59;;;;;;;23.90;2.78;;;5.70;99.90;;;;;;5083377;28;20494;-63
2024/03/23 01:13:27;;;;;;;18.42;3.20;;;5.70;99.90;;;;;;5071778;28;20399;-64
2024/03/23 01:15:54;;;;;;;23.27;3.58;;;5.70;99.90;;;;;;5083963;28;20032;-64
2024/03/23 01:18:20;;;;;;;19.23;2.80;;;5.60;99.90;;;;;;5084038;28;20051;-63
2024/03/23 01:20:46;;;;;;;16.25;2.65;;;5.60;99.90;;;;;;5079141;28;20056;-63
2024/03/23 01:23:12;;;;;;;21.95;3.53;;;5.60;99.90;;;;;;5077806;28;20048;-64
2024/03/23 01:25:38;;;;;;;20.95;2.63;;;5.60;99.90;;;;;;5076280;28;20047;-64
2024/03/23 01:28:06;;;;;;;26.58;3.17;;;5.60;99.90;;;;;;5071486;28;20075;-63
2024/03/23 01:30:35;;;;;;;22.30;2.72;;;5.50;99.90;;;;;;5082542;28;20032;-64
2024/03/23 01:33:02;;;;;;;24.10;3.08;;;5.50;99.90;;;;;;5082594;28;20505;-63
2024/03/23 01:35:28;;;;;;;20.88;3.13;;;5.50;99.90;;;;;;5075462;28;20100;-63
2024/03/23 01:37:54;;;;;;;16.27;3.08;;;5.40;99.90;;;;;;5069857;28;20037;-63
2024/03/23 01:40:20;;;;;;;17.33;2.67;;;5.30;99.90;;;;;;5080306;28;20042;-63
2024/03/23 01:43:21;;;;;;;16.90;2.63;;;5.40;99.90;;;;;;5071953;28;20433;-64
2024/03/23 01:45:47;;;;;;;15.93;2.60;;;5.30;99.90;;;;;;5020321;28;20103;-64
2024/03/23 01:48:13;;;;;;;19.42;2.60;;;5.30;99.90;;;;;;5067819;28;20541;-64
2024/03/23 01:50:39;;;;;;;10.43;2.22;;;5.30;99.90;;;;;;5081700;28;20032;-64
2024/03/23 01:53:06;;;;;;;23.67;2.90;;;5.30;99.90;;;;;;5054959;28;20056;-63
2024/03/23 01:55:35;;;;;;;13.82;2.88;;;5.30;99.90;;;;;;5091872;28;20040;-63
2024/03/23 01:58:00;;;;;;;12.65;2.38;;;5.20;99.90;;;;;;5073387;28;20517;-63
2024/03/23 02:00:27;;;;;;;18.52;3.60;;;5.30;99.90;;;;;;5073494;28;20036;-64
2024/03/23 02:02:54;;;;;;;17.98;2.53;;;5.20;99.90;;;;;;5076188;28;20124;-64
2024/03/23 02:05:20;;;;;;;20.25;3.08;;;5.30;99.90;;;;;;5070835;28;20040;-63
2024/03/23 02:07:46;;;;;;;10.52;2.00;;;5.20;99.90;;;;;;5077488;28;20474;-63
2024/03/23 02:10:14;;;;;;;24.75;2.63;;;5.10;99.90;;;;;;5073718;28;20128;-64
2024/03/23 02:12:40;;;;;;;14.90;2.60;;;5.10;99.90;;;;;;5082411;28;20106;-63
2024/03/23 02:15:08;;;;;;;16.23;2.67;;;5.10;99.90;;;;;;5072664;28;20502;-64
2024/03/23 02:17:34;;;;;;;21.02;2.92;;;5.10;99.90;;;;;;5081762;28;20047;-63
2024/03/23 02:20:01;;;;;;;19.70;2.63;;;5.10;99.90;;;;;;5075301;28;20060;-64
2024/03/23 02:22:39;;;;;;;17.58;3.17;;;5.10;99.90;;;;;;5081887;28;20147;-63
2024/03/23 02:25:07;;;;;;;8.30;2.53;;;5.10;99.90;;;;;;5074473;28;20048;-64
2024/03/23 02:27:34;;;;;;;16.48;3.08;;;5.00;99.90;;;;;;5070197;28;20044;-63
2024/03/23 02:30:00;;;;;;;21.67;2.78;;;5.00;99.90;;;;;;5063716;28;20044;-63
2024/03/23 02:32:26;;;;;;;16.23;2.40;;;5.00;99.90;;;;;;5080698;28;20469;-63
2024/03/23 02:34:52;;;;;;;23.85;2.42;;;5.00;99.90;;;;;;5073940;28;20127;-64
2024/03/23 02:37:17;;;;;;;13.38;2.53;;;4.90;99.90;;;;;;5073133;28;20348;-63
2024/03/23 02:39:43;;;;;;;20.05;3.03;;;4.90;99.90;;;;;;5075070;28;20114;-64
2024/03/23 02:42:09;;;;;;;19.23;3.20;;;4.80;99.90;;;;;;5078225;28;20498;-63
2024/03/23 02:44:34;;;;;;;13.85;2.75;;;4.90;99.90;;;;;;5073675;28;20040;-63
2024/03/23 02:47:00;;;;;;;16.38;2.70;;;4.80;99.90;;;;;;5076068;28;20044;-64
2024/03/23 02:49:26;;;;;;;17.58;2.65;;;4.70;99.90;;;;;;5081873;28;20382;-63
2024/03/23 02:51:52;;;;;;;16.13;3.10;;;4.80;99.90;;;;;;5077471;28;20051;-63
2024/03/23 02:54:17;;;;;;;13.98;3.00;;;4.70;99.90;;;;;;5081323;28;20048;-63
2024/03/23 02:56:43;;;;;;;17.02;2.85;;;4.70;99.90;;;;;;5080470;28;20039;-64
2024/03/23 02:59:09;;;;;;;11.52;2.15;;;4.60;99.90;;;;;;5077468;28;20044;-64
2024/03/23 03:01:35;;;;;;;11.98;2.08;;;4.70;99.90;;;;;;5068229;28;20542;-64
2024/03/23 03:04:00;;;;;;;15.85;2.83;;;4.70;99.90;;;;;;5074798;28;20040;-63
2024/03/23 03:06:26;;;;;;;15.50;2.88;;;4.70;99.90;;;;;;5076319;28;20040;-63
2024/03/23 03:08:52;;;;;;;14.73;2.83;;;4.70;99.90;;;;;;5072803;28;20413;-64
2024/03/23 03:11:18;;;;;;;11.77;2.25;;;4.70;99.90;;;;;;5076329;28;20085;-64
2024/03/23 03:13:43;;;;;;;13.75;2.40;;;4.70;99.90;;;;;;5074959;28;20518;-63
2024/03/23 03:16:12;;;;;;;24.23;2.80;;;4.60;99.90;;;;;;5071493;28;20059;-64
2024/03/23 03:18:40;;;;;;;14.52;2.08;;;4.70;99.90;;;;;;5078882;28;20048;-64
2024/03/23 03:21:10;;;;;;;16.60;2.40;;;4.60;99.90;;;;;;5066872;28;20062;-63
2024/03/23 03:23:37;;;;;;;10.73;2.45;;;4.70;99.90;;;;;;5076774;28;20293;-65
2024/03/23 03:26:03;;;;;;;17.95;3.03;;;4.60;99.90;;;;;;5073145;28;20044;-64
2024/03/23 03:28:30;;;;;;;15.13;3.20;;;4.70;99.90;;;;;;5062373;28;20415;-64
2024/03/23 03:30:57;;;;;;;16.80;2.92;;;4.60;99.90;;;;;;5067929;28;20052;-64
2024/03/23 03:33:23;;;;;;;13.52;2.35;;;4.70;99.90;;;;;;5063895;28;20058;-64
2024/03/23 03:35:49;;;;;;;19.83;2.58;;;4.70;99.90;;;;;;5070863;28;20047;-63
2024/03/23 03:38:16;;;;;;;18.13;2.42;;;4.70;99.90;;;;;;5071748;28;20488;-64
2024/03/23 03:40:42;;;;;;;17.95;2.65;;;4.70;99.90;;;;;;5077924;28;20050;-63
2024/03/23 03:43:08;;;;;;;9.82;1.88;;;4.70;99.90;;;;;;5067332;28;20032;-63
2024/03/23 03:45:33;;;;;;;12.90;2.03;;;4.60;99.90;;;;;;5053449;28;20048;-64
2024/03/23 03:48:08;;;;;;;9.15;2.30;;;4.60;99.90;;;;;;5080005;28;20194;-64
2024/03/23 03:50:34;;;;;;;18.20;1.92;;;4.60;99.90;;;;;;5075361;28;20166;-63
2024/03/23 03:53:00;;;;;;;17.52;2.72;;;4.70;99.90;;;;;;5083480;28;20047;-64
2024/03/23 03:55:25;;;;;;;25.48;2.95;;;4.70;99.90;;;;;;5078536;28;20047;-64
2024/03/23 03:57:51;;;;;;;14.48;1.98;;;4.60;99.90;;;;;;5079277;28;20044;-64
2024/03/23 04:00:17;;;;;;;17.92;2.38;;;4.60;99.90;;;;;;5082935;28;20074;-63
2024/03/23 04:02:42;;;;;;;11.88;1.95;;;4.60;99.90;;;;;;5081480;28;20425;-64
2024/03/23 04:05:08;;;;;;;12.32;2.15;;;4.50;99.90;;;;;;5071625;28;20042;-63
2024/03/23 04:07:34;;;;;;;14.43;2.50;;;4.60;99.90;;;;;;5085573;28;20036;-64
2024/03/23 04:10:00;;;;;;;8.13;1.88;;;4.60;99.90;;;;;;5082182;28;20409;-64
2024/03/23 04:12:25;;;;;;;14.50;2.08;;;4.50;99.90;;;;;;5084851;28;20044;-63
2024/03/23 04:14:51;;;;;;;17.63;2.55;;;4.50;99.90;;;;;;5071730;28;20047;-63
2024/03/23 04:17:17;;;;;;;7.60;1.92;;;4.50;99.90;;;;;;5076220;28;20386;-64
2024/03/23 04:19:43;;;;;;;12.02;3.00;;;4.40;99.90;;;;;;5076047;28;20052;-64
2024/03/23 04:22:09;;;;;;;6.72;1.90;;;4.50;99.90;;;;;;5079338;28;20051;-63
2024/03/23 04:24:35;;;;;;;8.80;2.08;;;4.40;99.90;;;;;;5076619;28;20036;-64
2024/03/23 04:27:00;;;;;;;10.57;1.90;;;4.40;99.90;;;;;;5076452;28;20055;-64
2024/03/23 04:29:26;;;;;;;21.10;2.85;;;4.40;99.90;;;;;;5077619;28;20085;-64
2024/03/23 04:31:52;;;;;;;18.35;2.67;;;4.40;99.90;;;;;;5079175;28;20040;-63
2024/03/23 04:34:18;;;;;;;11.57;1.95;;;4.40;99.90;;;;;;5066471;28;20044;-64
2024/03/23 04:36:44;;;;;;;10.50;1.50;;;4.40;99.90;;;;;;5078435;28;20116;-64
2024/03/23 04:39:10;;;;;;;10.88;2.25;;;4.40;99.90;;;;;;5085087;28;20489;-64
2024/03/23 04:41:36;;;;;;;16.55;2.10;;;4.40;99.90;;;;;;5096701;28;20080;-64
2024/03/23 04:44:02;;;;;;;13.43;2.13;;;4.30;99.90;;;;;;5080149;28;20079;-64
2024/03/23 04:46:28;;;;;;;21.67;2.95;;;4.40;99.90;;;;;;5084396;28;20047;-64
2024/03/23 04:48:53;;;;;;;20.27;2.22;;;4.40;99.90;;;;;;5081173;28;20212;-64
2024/03/23 04:51:26;;;;;;;10.48;1.83;;;4.40;99.90;;;;;;5080902;28;20096;-64
2024/03/23 04:53:51;;;;;;;13.32;1.90;;;4.40;99.90;;;;;;5071040;28;20513;-64
2024/03/23 04:56:18;;;;;;;10.95;2.17;;;4.50;99.90;;;;;;5084186;28;20028;-64
2024/03/23 04:58:44;;;;;;;15.93;2.00;;;4.40;99.90;;;;;;5078342;28;20497;-64
2024/03/23 05:01:10;;;;;;;18.33;2.20;;;4.50;99.90;;;;;;5084044;28;20127;-64
2024/03/23 05:03:36;;;;;;;10.93;2.08;;;4.50;99.90;;;;;;5082924;28;20123;-64
2024/03/23 05:06:02;;;;;;;14.50;2.20;;;4.40;99.90;;;;;;5083555;28;20135;-63
2024/03/23 05:08:27;;;;;;;14.05;1.38;;;4.50;99.90;;;;;;5082970;28;20032;-64
2024/03/23 05:10:53;;;;;;;14.02;1.52;;;4.50;99.90;;;;;;5064098;28;20442;-64
2024/03/23 05:13:19;;;;;;;7.53;1.30;;;4.50;99.90;;;;;;5066575;28;20048;-63
2024/03/23 05:15:50;;;;;;;10.93;2.10;;;4.50;99.90;;;;;;5082283;28;20714;-63
2024/03/23 05:18:16;;;;;;;15.90;2.10;;;4.50;99.90;;;;;;5080713;28;20048;-64
2024/03/23 05:20:41;;;;;;;6.97;1.27;;;4.60;99.90;;;;;;5077228;28;20044;-64
2024/03/23 05:23:07;;;;;;;9.30;1.92;;;4.60;99.90;;;;;;5081602;28;20048;-64
2024/03/23 05:25:33;;;;;;;9.95;1.50;;;4.50;99.90;;;;;;5080364;28;20079;-63
2024/03/23 05:27:59;;;;;;;17.92;1.60;;;4.60;99.90;;;;;;5079070;28;20649;-64
2024/03/23 05:30:25;;;;;;;6.97;1.50;;;4.70;99.90;;;;;;5066971;28;20495;-64
2024/03/23 05:32:51;;;;;;;9.63;1.50;;;4.70;99.90;;;;;;5079658;28;20052;-64
2024/03/23 05:35:17;;;;;;;8.40;0.82;;;4.60;99.90;;;;;;5058834;28;20047;-63
2024/03/23 05:37:43;;;;;;;8.80;1.38;;;4.60;99.90;;;;;;5074072;28;20041;-64
2024/03/23 05:40:09;;;;;;;16.25;2.10;;;4.60;99.90;;;;;;5080901;28;20507;-64
2024/03/23 05:42:36;;;;;;;18.73;2.30;;;4.60;99.90;;;;;;5073031;28;20151;-64
2024/03/23 05:45:01;;;;;;;12.13;1.90;;;4.70;99.90;;;;;;5073649;28;20032;-64
2024/03/23 05:47:27;;;;;;;10.73;2.47;;;4.60;99.90;;;;;;5082915;28;20032;-63
2024/03/23 05:49:53;;;;;;;14.07;1.95;;;4.60;99.90;;;;;;5079411;28;20052;-63
2024/03/23 05:52:20;;;;;;;12.88;1.55;;;4.70;99.90;;;;;;5071759;28;20505;-64
2024/03/23 05:54:46;;;;;;;16.50;1.42;;;4.80;99.90;;;;;;5076897;28;20522;-64
2024/03/23 05:57:12;;;;;;;9.23;1.42;;;4.80;99.90;;;;;;5078811;28;20040;-64
2024/03/23 05:59:37;;;;;;;11.32;1.27;;;4.70;99.90;;;;;;5064746;28;20146;-64
2024/03/23 06:02:03;;;;;;;7.78;1.65;;;4.90;99.90;;;;;;5078493;28;20048;-64
2024/03/23 06:04:29;;;;;;;6.82;1.23;;;5.00;99.90;;;;;;5077831;28;20094;-64
2024/03/23 06:06:55;;;;;;;14.68;1.83;;;5.00;99.90;;;;;;5078221;28;20051;-64
2024/03/23 06:09:20;;;;;;;15.48;2.40;;;5.10;99.90;;;;;;5076907;28;20036;-63
2024/03/23 06:11:46;;;;;;;4.68;1.05;;;5.20;99.90;;;;;;5067589;28;20482;-64
2024/03/23 06:14:12;;;;;;;8.02;1.60;;;5.40;99.90;;;;;;5073132;28;20563;-64
2024/03/23 06:16:37;;;;;;;6.80;0.90;;;5.50;99.90;;;;;;5075462;28;20048;-64
2024/03/23 06:19:06;;;;;;;2.30;0.55;;;5.60;99.90;;;;;;5074955;28;20045;-64
2024/03/23 06:21:33;;;;;;;11.02;2.00;;;5.70;99.90;;;;;;5066005;28;20083;-64
2024/03/23 06:23:58;;;;;;;17.20;2.28;;;5.70;99.90;;;;;;5065805;28;20044;-64
2024/03/23 06:26:24;;;;;;;5.05;0.75;;;5.70;99.90;;;;;;5080336;28;20059;-64
2024/03/23 06:28:50;;;;;;;7.70;1.65;;;5.70;99.90;;;;;;5073515;28;20044;-64
2024/03/23 06:31:15;;;;;;;7.22;1.15;;;5.70;99.90;;;;;;5081044;28;20071;-64
2024/03/23 06:33:42;;;;;;;6.68;1.08;;;5.80;99.90;;;;;;5077120;28;20048;-64
2024/03/23 06:36:10;;;;;;;8.40;1.70;;;6.00;99.90;;;;;;5065610;28;20039;-64
2024/03/23 06:38:37;;;;;;;5.45;1.20;;;6.20;99.90;;;;;;5078897;28;20043;-64
2024/03/23 06:41:06;;;;;;;5.80;1.05;;;6.50;99.90;;;;;;5075952;28;20083;-64
2024/03/23 06:43:32;;;;;;;9.32;1.15;;;6.60;99.90;;;;;;5075017;28;20043;-64
2024/03/23 06:45:58;;;;;;;8.40;1.63;;;6.90;99.90;;;;;;5073077;28;20052;-64
2024/03/23 06:48:24;;;;;;;7.03;1.05;;;7.00;99.90;;;;;;5076134;28;20108;-64
2024/03/23 06:50:55;;;;;;;9.35;1.42;;;6.90;99.90;;;;;;5076356;28;20040;-64
2024/03/23 06:53:20;;;;;;;10.50;1.30;;;6.90;99.90;;;;;;5072747;28;20518;-64
2024/03/23 06:55:51;;;;;;;15.23;1.80;;;6.60;99.90;;;;;;5088153;28;20036;-64
2024/03/23 06:58:17;;;;;;;5.45;1.10;;;6.50;99.90;;;;;;5084251;28;20211;-64
2024/03/23 07:00:43;;;;;;;8.93;1.15;;;6.40;99.90;;;;;;5091494;28;20489;-64
2024/03/23 07:03:09;;;;;;;5.28;0.95;;;6.50;99.90;;;;;;5089395;28;20119;-64
2024/03/23 07:05:34;;;;;;;1.83;0.65;;;6.40;99.90;;;;;;5086298;28;20071;-64
2024/03/23 07:08:00;;;;;;;8.52;1.00;;;6.20;99.90;;;;;;5083029;28;20494;-64
2024/03/23 07:10:26;;;;;;;3.55;0.65;;;6.10;61.90;;;;;;5068880;28;20051;-64
2024/03/23 07:12:51;;;;;;;7.25;0.90;;;6.00;77.90;;;;;;5070960;28;20048;-64
2024/03/23 07:15:17;;;;;;;8.23;1.10;;;6.00;99.40;;;;;;5069950;28;20044;-64
2024/03/23 07:17:47;;;;;;;5.85;0.88;;;6.00;99.90;;;;;;5070792;28;20123;-64
2024/03/23 07:20:13;;;;;;;6.53;0.80;;;6.10;99.90;;;;;;5064111;28;20502;-64
2024/03/23 07:22:39;;;;;;;5.80;0.73;;;6.30;99.90;;;;;;5076810;28;20055;-64
2024/03/23 07:25:06;;;;;;;4.90;0.82;;;6.30;4.50;;;;;;5070509;28;20587;-64
2024/03/23 07:27:33;;;;;;;3.47;0.98;;;6.50;40.80;;;;;;5071948;28;20506;-64
2024/03/23 07:30:00;;;;;;;4.70;0.85;;;6.60;1.00;;;;;;5068669;28;20119;-64
2024/03/23 07:32:26;;;;;;;5.88;0.80;;;6.70;1.00;;;;;;5070455;28;20111;-64
2024/03/23 07:34:53;;;;;;;2.05;0.85;;;6.90;1.00;;;;;;5070791;28;20050;-64
2024/03/23 07:37:18;;;;;;;0.65;0.38;;;7.10;1.00;;;;;;5061781;28;20036;-64
2024/03/23 07:39:44;;;;;;;2.00;1.27;;;7.20;52.70;;;;;;5063325;28;20037;-64
2024/03/23 07:42:10;;;;;;;9.43;1.25;;;7.10;1.00;;;;;;5061675;28;20135;-64
2024/03/23 07:44:35;;;;;;;3.45;0.57;;;7.20;48.60;;;;;;5071912;28;20043;-64
2024/03/23 07:47:01;;;;;;;4.35;1.05;;;7.20;11.30;;;;;;5066526;28;20054;-64
2024/03/23 07:49:27;;;;;;;4.35;0.68;;;7.40;74.90;;;;;;5074406;28;20532;-64
2024/03/23 07:51:53;;;;;;;3.65;0.90;;;7.50;85.60;;;;;;5068177;28;20045;-64
2024/03/23 07:54:19;;;;;;;11.38;1.52;;;7.60;21.90;;;;;;5074154;28;20070;-64
2024/03/23 07:56:45;;;;;;;5.43;0.85;;;7.50;47.20;;;;;;5066606;28;20052;-64
2024/03/23 07:59:11;;;;;;;2.00;0.55;;;7.50;15.50;;;;;;5065930;28;20076;-64
2024/03/23 08:01:37;;;;;;;14.80;1.02;;;7.30;1.00;;;;;;5065790;28;20557;-64
2024/03/23 08:04:03;;;;;;;6.72;0.98;;;7.10;1.00;;;;;;5070711;28;20062;-64
2024/03/23 08:06:28;;;;;;;6.40;1.00;;;7.20;21.10;;;;;;5074409;28;20047;-65
2024/03/23 08:09:02;;;;;;;5.78;1.00;;;7.20;27.00;;;;;;5066390;28;20042;-65
2024/03/23 08:11:29;;;;;;;8.25;1.67;;;7.40;47.50;;;;;;5068713;28;20060;-64
2024/03/23 08:13:55;;;;;;;6.68;1.60;;;7.50;73.40;;;;;;5066299;28;20044;-64
2024/03/23 08:16:21;;;;;;;7.53;1.13;;;7.70;21.70;;;;;;5074163;28;20036;-64
2024/03/23 08:18:47;;;;;;;8.77;1.08;;;7.70;1.00;;;;;;5067821;28;20047;-64
2024/03/23 08:21:13;;;;;;;4.20;0.70;;;7.80;1.00;;;;;;5063840;28;20056;-64
2024/03/23 08:23:40;;;;;;;8.32;1.10;;;7.90;1.00;;;;;;5065445;28;20044;-64
2024/03/23 08:26:11;;;;;;;6.82;0.88;;;8.00;1.00;;;;;;5079484;28;20054;-64
2024/03/23 08:28:37;;;;;;;8.80;1.20;;;8.20;1.00;;;;;;5075794;28;20044;-64
2024/03/23 08:31:11;;;;;;;5.55;0.85;;;8.20;1.00;;;;;;5075130;28;20507;-64
2024/03/23 08:33:38;;;;;;;10.82;1.27;;;8.20;1.00;;;;;;5076260;28;20126;-64
2024/03/23 08:36:09;;;;;;;9.45;1.50;;;8.30;1.00;;;;;;5073620;28;20102;-64
2024/03/23 08:38:35;;;;;;;10.20;1.75;;;8.40;1.00;;;;;;5072696;28;20450;-64
2024/03/23 08:41:08;;;;;;;7.55;1.13;;;8.50;1.00;;;;;;5069869;28;20047;-65
2024/03/23 08:43:37;;;;;;;4.18;1.45;;;8.60;1.00;;;;;;5079204;28;20048;-64
2024/03/23 08:46:09;;;;;;;10.40;1.05;;;8.60;1.00;;;;;;5067168;28;20534;-64
2024/03/23 08:48:38;;;;;;;5.00;0.63;;;8.40;99.90;;;;;;5074912;28;20075;-64
2024/03/23 08:51:05;;;;;;;2.38;0.75;;;8.30;1.00;;;;;;5079985;28;20044;-64
2024/03/23 08:53:32;;;;;;;4.60;0.50;;;8.10;99.90;;;;;;5077814;28;20040;-64
2024/03/23 08:55:59;;;;;;;1.92;0.57;;;7.80;99.90;;;;;;5071589;28;20397;-65
2024/03/23 08:58:26;;;;;;;5.53;0.90;;;7.70;99.90;;;;;;5076509;28;20474;-65
2024/03/23 09:00:52;;;;;;;6.63;1.30;;;7.80;99.90;;;;;;5069825;28;20040;-64
2024/03/23 09:03:18;;;;;;;1.42;0.75;;;7.90;99.90;;;;;;5065797;28;20048;-64
2024/03/23 09:05:44;;;;;;;2.28;0.60;;;8.20;1.00;;;;;;5070981;28;20047;-64
2024/03/23 09:08:10;;;;;;;6.03;0.65;;;8.30;99.90;;;;;;5075343;28;20119;-64
2024/03/23 09:10:40;;;;;;;4.30;0.75;;;8.30;99.90;;;;;;5065028;28;20051;-64
2024/03/23 09:13:06;;;;;;;4.25;0.57;;;8.50;99.90;;;;;;5082351;28;20106;-64
2024/03/23 09:15:37;;;;;;;3.88;0.88;;;8.70;99.90;;;;;;5064717;28;20045;-64
2024/03/23 09:18:04;;;;;;;1.52;0.47;;;8.90;99.90;;;;;;5075286;28;20474;-63
2024/03/23 09:20:32;;;;;;;2.47;1.00;;;9.00;99.90;;;;;;5065835;28;20052;-64
2024/03/23 09:22:58;;;;;;;4.20;0.70;;;9.10;99.90;;;;;;5072836;28;20490;-64
2024/03/23 09:25:24;;;;;;;1.35;0.43;;;9.00;99.90;;;;;;5065584;28;20044;-64
2024/03/23 09:27:50;;;;;;;4.47;1.10;;;8.90;99.90;;;;;;5068053;28;20048;-64
2024/03/23 09:30:17;;;;;;;11.32;2.10;;;8.80;99.90;;;;;;5069391;28;20437;-64
2024/03/23 09:32:43;;;;;;;9.45;1.42;;;8.80;99.90;;;;;;5067562;28;20052;-64
2024/03/23 09:35:10;;;;;;;2.95;1.40;;;9.00;99.90;;;;;;5072724;28;20115;-64
2024/03/23 09:37:36;;;;;;;7.00;1.42;;;9.00;99.90;;;;;;5075868;28;20329;-64
2024/03/23 09:40:02;;;;;;;6.57;0.90;;;9.20;99.90;;;;;;5082447;28;20443;-64
2024/03/23 09:42:28;;;;;;;2.75;0.20;;;9.30;99.90;;;;;;5081626;28;20770;-64
2024/03/23 09:44:58;;;;;;;12.07;1.88;;;9.30;99.90;;;;;;5083445;28;20043;-64
2024/03/23 09:47:25;;;;;;;7.50;1.88;;;9.20;99.90;;;;;;5074824;28;20144;-64
2024/03/23 09:49:51;;;;;;;2.38;0.75;;;9.20;99.90;;;;;;5080437;28;20036;-64
2024/03/23 09:52:17;;;;;;;8.55;1.58;;;9.30;99.90;;;;;;5079863;28;20033;-64
2024/03/23 09:54:43;;;;;;;6.93;1.45;;;9.20;99.90;;;;;;5080603;28;20055;-64
2024/03/23 09:57:08;;;;;;;8.48;1.30;;;8.90;99.90;;;;;;5069309;28;20745;-64
2024/03/23 09:59:34;;;;;;;10.93;1.80;;;8.70;99.90;;;;;;5068299;28;20045;-64
2024/03/23 10:02:01;;;;;;;11.73;2.22;;;8.50;99.90;;;;;;5068927;28;20051;-64
2024/03/23 10:04:44;;;;;;;12.40;2.50;;;7.70;99.90;;;;;;5070289;28;20065;-64
2024/03/23 10:07:14;;;;;;;2.85;1.27;;;7.10;1.00;;;;;;5075961;28;20051;-64
2024/03/23 10:09:40;;;;;;;4.47;1.15;;;6.80;85.00;;;;;;5079627;28;20043;-64
2024/03/23 10:12:19;;;;;;;4.63;1.10;;;6.60;99.90;;;;;;5072167;28;20367;-64
2024/03/23 10:14:46;;;;;;;0.70;0.43;;;6.60;99.90;;;;;;5069790;28;20276;-64
2024/03/23 10:17:19;;;;;;;2.20;0.50;;;6.50;99.90;;;;;;5072052;28;20079;-64
2024/03/23 10:19:49;;;;;;;5.15;1.33;;;6.50;99.90;;;;;;5073447;28;20522;-64
2024/03/23 10:22:18;;;;;;;4.68;0.93;;;6.60;99.90;;;;;;5067703;28;20109;-64
2024/03/23 10:24:44;;;;;;;5.63;1.13;;;6.70;99.90;;;;;;5071157;28;20181;-64
2024/03/23 10:27:16;;;;;;;4.75;1.17;;;6.70;99.90;;;;;;5069355;28;20043;-65
2024/03/23 10:29:42;;;;;;;3.80;1.00;;;6.80;37.50;;;;;;5044030;28;20495;-64
2024/03/23 10:32:15;;;;;;;5.18;1.15;;;6.90;96.90;;;;;;5063048;28;20071;-64
2024/03/23 10:34:41;;;;;;;11.13;1.45;;;7.00;84.20;;;;;;5067475;28;20048;-64
2024/03/23 10:37:07;;;;;;;11.07;1.75;;;7.40;99.90;;;;;;5080102;28;20525;-64
2024/03/23 10:39:35;;;;;;;4.78;0.98;;;7.70;1.00;;;;;;5079541;28;20043;-64
2024/03/23 10:42:07;;;;;;;4.15;0.85;;;8.00;1.00;;;;;;5061467;28;20044;-64
2024/03/23 10:44:33;;;;;;;5.97;0.93;;;8.40;1.00;;;;;;5075366;28;20181;-64
2024/03/23 10:47:04;;;;;;;3.33;0.85;;;8.70;1.00;;;;;;5072542;28;20131;-64
2024/03/23 10:49:35;;;;;;;3.80;0.70;;;9.00;1.00;;;;;;5069359;28;20051;-64
2024/03/23 10:52:03;;;;;;;2.67;0.52;;;9.30;99.90;;;;;;5075259;28;20147;-64
2024/03/23 10:54:33;;;;;;;1.08;0.70;;;9.50;99.90;;;;;;5086842;28;20043;-64
2024/03/23 10:57:08;;;;;;;3.37;0.83;;;9.50;99.90;;;;;;5070575;28;20043;-64
2024/03/23 10:59:36;;;;;;;9.60;1.52;;;9.40;99.90;;;;;;5072943;28;20879;-65
2024/03/23 11:02:06;;;;;;;14.18;2.50;;;9.50;99.90;;;;;;5068859;28;20094;-65
2024/03/23 11:04:35;;;;;;;4.13;0.60;;;9.60;99.90;;;;;;5072953;28;20127;-64
2024/03/23 11:07:02;;;;;;;5.22;1.33;;;9.60;99.90;;;;;;5078907;28;20084;-64
2024/03/23 11:09:46;;;;;;;4.30;1.30;;;9.30;99.90;;;;;;5068925;28;20481;-64
2024/03/23 11:12:23;;;;;;;5.57;1.25;;;8.80;99.90;;;;;;5078857;28;20200;-64
2024/03/23 11:15:11;;;;;;;6.65;1.33;;;8.40;99.90;;;;;;5076910;28;20398;-64
2024/03/23 11:17:37;;;;;;;9.50;1.98;;;8.00;99.90;;;;;;5063585;28;20488;-64
2024/03/23 11:20:06;;;;;;;9.63;1.92;;;7.80;1.00;;;;;;5075905;28;20457;-64
2024/03/23 11:22:49;;;;;;;7.07;1.35;;;7.60;1.00;;;;;;5073186;28;20083;-64
2024/03/23 11:25:25;;;;;;;2.28;0.93;;;7.60;1.00;;;;;;5063242;28;20049;-65
2024/03/23 11:27:52;;;;;;;8.05;1.98;;;7.50;1.00;;;;;;5071504;28;20040;-65
2024/03/23 11:30:19;;;;;;;3.10;0.57;;;7.30;1.00;;;;;;5074072;28;20045;-64
2024/03/23 11:32:48;;;;;;;1.02;0.40;;;7.00;1.00;;;;;;5075879;28;20048;-65
2024/03/23 11:35:30;;;;;;;2.20;0.65;;;6.70;1.00;;;;;;5069605;28;20049;-65
2024/03/23 11:38:06;;;;;;;1.38;0.57;;;6.60;82.80;;;;;;5075522;28;20095;-65
2024/03/23 11:40:33;;;;;;;5.97;0.85;;;6.60;99.90;;;;;;5063948;28;20036;-65
2024/03/23 11:43:11;;;;;;;0.52;0.28;;;6.70;99.90;;;;;;5061141;28;20056;-65
2024/03/23 11:45:48;;;;;;;0.43;0.43;;;7.00;99.90;;;;;;5081734;28;20135;-65
2024/03/23 11:48:18;;;;;;;1.25;0.50;;;7.40;99.90;;;;;;5072168;28;20442;-65
2024/03/23 11:50:46;;;;;;;4.40;0.70;;;7.90;99.90;;;;;;5063282;28;20053;-65
2024/03/23 11:53:11;;;;;;;4.68;0.55;;;8.20;1.00;;;;;;5062437;28;20579;-65
2024/03/23 11:56:00;;;;;;;0.90;0.43;;;8.50;1.00;;;;;;5065941;28;20091;-65
2024/03/23 11:58:26;;;;;;;5.85;0.82;;;8.70;99.90;;;;;;5067178;28;20052;-65
2024/03/23 12:01:03;;;;;;;8.23;1.58;;;8.80;99.90;;;;;;5062208;28;20105;-65
2024/03/23 12:03:30;;;;;;;10.68;1.92;;;9.10;1.00;;;;;;5070805;28;20242;-65
2024/03/23 12:06:01;;;;;;;5.55;1.10;;;9.10;99.90;;;;;;5065196;28;20098;-65
2024/03/23 12:08:35;;;;;;;2.60;0.32;;;8.80;99.90;;;;;;5066837;28;20088;-65
2024/03/23 12:11:19;;;;;;;8.73;1.25;;;8.60;99.90;;;;;;5069532;28;20427;-65
2024/03/23 12:13:46;;;;;;;0.22;0.15;;;8.30;99.90;;;;;;5064419;28;20497;-65
2024/03/23 12:16:20;;;;;;;2.72;1.23;;;8.30;1.00;;;;;;5074602;28;20042;-65
2024/03/23 12:18:48;;;;;;;12.05;1.50;;;8.40;1.00;;;;;;5067130;28;20534;-65
2024/03/23 12:21:13;;;;;;;6.60;0.85;;;8.50;1.00;;;;;;5071041;28;20486;-65
2024/03/23 12:23:40;;;;;;;10.98;1.63;;;8.70;1.00;;;;;;5074097;28;20051;-65
2024/03/23 12:26:06;;;;;;;3.90;0.80;;;8.90;1.00;;;;;;5071674;28;20508;-65
2024/03/23 12:28:33;;;;;;;7.95;1.30;;;9.10;1.00;;;;;;5074187;28;20042;-65
2024/03/23 12:30:58;;;;;;;18.20;1.55;;;9.40;99.90;;;;;;5068394;28;20406;-65
2024/03/23 12:33:24;;;;;;;8.13;1.17;;;9.70;99.90;;;;;;5069785;28;20040;-65
2024/03/23 12:35:53;;;;;;;2.75;1.05;;;9.80;99.90;;;;;;5076533;28;20549;-65
2024/03/23 12:38:19;;;;;;;8.07;1.15;;;9.80;99.90;;;;;;5082158;28;20116;-65
2024/03/23 12:40:51;;;;;;;6.40;1.52;;;9.60;99.90;;;;;;5083887;28;20581;-65
2024/03/23 12:43:18;;;;;;;1.02;0.75;;;9.30;99.90;;;;;;5067737;28;20047;-65
2024/03/23 12:45:49;;;;;;;1.50;0.65;;;9.00;99.90;;;;;;5060155;28;20048;-65
2024/03/23 12:48:14;;;;;;;4.75;1.80;;;8.70;99.90;;;;;;5079681;28;20367;-65
2024/03/23 12:50:40;;;;;;;4.30;1.10;;;7.80;1.00;;;;;;5059911;28;20051;-65
2024/03/23 12:53:06;;;;;;;1.40;0.60;;;7.00;1.00;;;;;;5073705;28;20047;-66